Cape Texel — V7RC4 — position and weather

sailwx.info

Track history (hours):
 
Tides and Currents Weather Stations Pressure Air Temp Water Temp Dewpoint Dewpoint Depression Visibility Wind Speed Wind Dir Waves Ship Positions

Cape Texel

Last reported at 2014-Nov-10 04:25 UTC. Time now 2014-Nov-28 05:43 UTC.
Position N 01°13' E 103°53'.
Warning: this ship's position is 18 days out of date.

Length 228 m; draft 8.2 m.

Type: Ship (hazmat cat A). MMSI: 538090383.

Date/timePositionNaut miles runAvg speedWind from/ knotsBaromVisibWave heightAir tempDewpointWater temp
2014-Nov-10 04:25N 01°13' E 103°53'3 2.8
2014-Nov-10 03:26N 01°15' E 103°55'0 0.0
2014-Nov-10 01:14N 01°15' E 103°55'0 0.0
2014-Nov-09 22:32N 01°15' E 103°55'0 0.0
2014-Nov-09 21:32N 01°15' E 103°55'0 0.0
2014-Nov-09 20:29N 01°15' E 103°55'0 0.0
2014-Nov-09 19:26N 01°15' E 103°55'0 0.1
2014-Nov-09 18:29N 01°15' E 103°55'0 0.1
2014-Nov-09 14:26N 01°15' E 103°55'3 3.5
2014-Nov-09 13:33N 01°16' E 103°58'5 3.9
2014-Nov-09 12:24N 01°16' E 104°02'6 6.9
2014-Nov-09 11:33N 01°17' E 104°08'6 6.0
2014-Nov-09 10:33N 01°18' E 104°14'  
Track history (hours):
 
Tides and Currents Weather Stations Pressure Air Temp Water Temp Dewpoint Dewpoint Depression Visibility Wind Speed Wind Dir Waves Ship Positions

Cape Texel

Last reported at 2014-Nov-10 04:25 UTC. Time now 2014-Nov-28 05:43 UTC.
Position N 01°13' E 103°53'.
Warning: this ship's position is 18 days out of date.

Length 228 m; draft 8.2 m.

Type: Ship (hazmat cat A). MMSI: 538090383.

Date/timePositionNaut miles runAvg speedWind from/ knotsBaromVisibWave heightAir tempDewpointWater temp
2014-Nov-10 04:25N 01°13' E 103°53'3 2.8
2014-Nov-10 03:26N 01°15' E 103°55'0 0.0
2014-Nov-10 01:14N 01°15' E 103°55'0 0.0
2014-Nov-09 22:32N 01°15' E 103°55'0 0.0
2014-Nov-09 21:32N 01°15' E 103°55'0 0.0
2014-Nov-09 20:29N 01°15' E 103°55'0 0.0
2014-Nov-09 19:26N 01°15' E 103°55'0 0.1
2014-Nov-09 18:29N 01°15' E 103°55'0 0.1
2014-Nov-09 14:26N 01°15' E 103°55'3 3.5
2014-Nov-09 13:33N 01°16' E 103°58'5 3.9
2014-Nov-09 12:24N 01°16' E 104°02'6 6.9
2014-Nov-09 11:33N 01°17' E 104°08'6 6.0
2014-Nov-09 10:33N 01°18' E 104°14'  

Dump ship's entire track history